sensor_id;sensor_type;location;lat;lon;timestamp;temperature;humidity
41965;DHT22;50120;53.250;8.702;2022-09-03T00:01:00;14.80;85.00
41965;DHT22;50120;53.250;8.702;2022-09-03T00:03:32;14.70;84.80
41965;DHT22;50120;53.250;8.702;2022-09-03T00:12:25;14.60;85.70
41965;DHT22;50120;53.250;8.702;2022-09-03T00:15:11;14.60;85.60
41965;DHT22;50120;53.250;8.702;2022-09-03T00:17:56;14.50;85.70
41965;DHT22;50120;53.250;8.702;2022-09-03T00:20:30;14.50;86.00
41965;DHT22;50120;53.250;8.702;2022-09-03T00:23:07;14.40;86.10
41965;DHT22;50120;53.250;8.702;2022-09-03T00:25:40;14.40;86.30
41965;DHT22;50120;53.250;8.702;2022-09-03T00:28:15;14.30;86.10
41965;DHT22;50120;53.250;8.702;2022-09-03T00:30:45;14.40;86.50
41965;DHT22;50120;53.250;8.702;2022-09-03T00:33:25;14.30;86.50
41965;DHT22;50120;53.250;8.702;2022-09-03T00:38:30;14.30;86.90
41965;DHT22;50120;53.250;8.702;2022-09-03T00:49:16;14.10;87.40
41965;DHT22;50120;53.250;8.702;2022-09-03T01:00:04;14.00;88.10
41965;DHT22;50120;53.250;8.702;2022-09-03T01:13:19;13.80;88.80
41965;DHT22;50120;53.250;8.702;2022-09-03T01:22:03;13.80;88.90
41965;DHT22;50120;53.250;8.702;2022-09-03T01:30:06;13.70;89.60
41965;DHT22;50120;53.250;8.702;2022-09-03T01:35:29;13.60;89.80
41965;DHT22;50120;53.250;8.702;2022-09-03T01:40:55;13.50;90.00
41965;DHT22;50120;53.250;8.702;2022-09-03T01:46:41;13.40;90.10
41965;DHT22;50120;53.250;8.702;2022-09-03T01:55:09;13.40;90.40
41965;DHT22;50120;53.250;8.702;2022-09-03T01:57:55;13.30;90.40
41965;DHT22;50120;53.250;8.702;2022-09-03T02:00:24;13.30;90.50
41965;DHT22;50120;53.250;8.702;2022-09-03T02:02:51;13.20;90.60
41965;DHT22;50120;53.250;8.702;2022-09-03T02:07:59;13.10;90.60
41965;DHT22;50120;53.250;8.702;2022-09-03T02:10:47;13.10;90.80
41965;DHT22;50120;53.250;8.702;2022-09-03T02:13:26;13.10;90.90
41965;DHT22;50120;53.250;8.702;2022-09-03T02:15:58;13.10;90.90
41965;DHT22;50120;53.250;8.702;2022-09-03T02:18:28;13.10;91.10
41965;DHT22;50120;53.250;8.702;2022-09-03T02:20:56;13.00;91.10
41965;DHT22;50120;53.250;8.702;2022-09-03T02:23:24;13.00;91.10
41965;DHT22;50120;53.250;8.702;2022-09-03T02:25:55;13.00;91.30
41965;DHT22;50120;53.250;8.702;2022-09-03T02:28:21;13.00;91.40
41965;DHT22;50120;53.250;8.702;2022-09-03T02:30:48;12.90;91.30
41965;DHT22;50120;53.250;8.702;2022-09-03T02:33:15;12.90;91.40
41965;DHT22;50120;53.250;8.702;2022-09-03T02:35:42;12.90;91.50
41965;DHT22;50120;53.250;8.702;2022-09-03T02:38:28;12.90;91.60
41965;DHT22;50120;53.250;8.702;2022-09-03T02:40:54;12.80;91.60
41965;DHT22;50120;53.250;8.702;2022-09-03T02:46:01;12.70;91.80
41965;DHT22;50120;53.250;8.702;2022-09-03T02:48:27;12.70;91.90
41965;DHT22;50120;53.250;8.702;2022-09-03T02:50:53;12.70;92.00
41965;DHT22;50120;53.250;8.702;2022-09-03T02:53:19;12.70;92.10
41965;DHT22;50120;53.250;8.702;2022-09-03T02:55:45;12.60;92.10
41965;DHT22;50120;53.250;8.702;2022-09-03T02:58:11;12.60;92.20
41965;DHT22;50120;53.250;8.702;2022-09-03T03:00:36;12.60;92.30
41965;DHT22;50120;53.250;8.702;2022-09-03T03:03:03;12.60;92.30
41965;DHT22;50120;53.250;8.702;2022-09-03T03:05:52;12.50;92.20
41965;DHT22;50120;53.250;8.702;2022-09-03T03:08:21;12.50;92.40
41965;DHT22;50120;53.250;8.702;2022-09-03T03:10:51;12.30;92.40
41965;DHT22;50120;53.250;8.702;2022-09-03T03:13:18;12.50;92.50
41965;DHT22;50120;53.250;8.702;2022-09-03T03:15:43;12.40;92.70
41965;DHT22;50120;53.250;8.702;2022-09-03T03:18:10;12.40;92.70
41965;DHT22;50120;53.250;8.702;2022-09-03T03:20:38;12.40;92.80
41965;DHT22;50120;53.250;8.702;2022-09-03T03:23:08;12.40;92.90
41965;DHT22;50120;53.250;8.702;2022-09-03T03:25:35;12.30;92.90
41965;DHT22;50120;53.250;8.702;2022-09-03T03:28:02;12.30;92.90
41965;DHT22;50120;53.250;8.702;2022-09-03T03:30:30;12.30;93.00
41965;DHT22;50120;53.250;8.702;2022-09-03T03:32:56;12.30;93.40
41965;DHT22;50120;53.250;8.702;2022-09-03T03:35:23;12.30;93.20
41965;DHT22;50120;53.250;8.702;2022-09-03T03:37:49;12.20;93.20
41965;DHT22;50120;53.250;8.702;2022-09-03T03:40:15;12.20;93.30
41965;DHT22;50120;53.250;8.702;2022-09-03T03:42:41;12.20;93.40
41965;DHT22;50120;53.250;8.702;2022-09-03T03:45:08;12.20;93.50
41965;DHT22;50120;53.250;8.702;2022-09-03T03:47:34;12.10;93.50
41965;DHT22;50120;53.250;8.702;2022-09-03T03:50:01;12.10;93.70
41965;DHT22;50120;53.250;8.702;2022-09-03T03:52:27;12.10;93.70
41965;DHT22;50120;53.250;8.702;2022-09-03T03:54:53;12.10;93.70
41965;DHT22;50120;53.250;8.702;2022-09-03T03:57:20;12.10;93.80
41965;DHT22;50120;53.250;8.702;2022-09-03T03:59:47;12.10;93.90
41965;DHT22;50120;53.250;8.702;2022-09-03T04:02:13;12.10;93.90
41965;DHT22;50120;53.250;8.702;2022-09-03T04:04:39;12.10;94.00
41965;DHT22;50120;53.250;8.702;2022-09-03T04:07:05;12.00;94.10
41965;DHT22;50120;53.250;8.702;2022-09-03T04:09:32;12.00;94.10
41965;DHT22;50120;53.250;8.702;2022-09-03T04:11:58;12.00;94.20
41965;DHT22;50120;53.250;8.702;2022-09-03T04:14:24;12.00;94.20
41965;DHT22;50120;53.250;8.702;2022-09-03T04:16:52;12.00;94.30
41965;DHT22;50120;53.250;8.702;2022-09-03T04:19:18;11.90;94.20
41965;DHT22;50120;53.250;8.702;2022-09-03T04:21:45;11.90;94.40
41965;DHT22;50120;53.250;8.702;2022-09-03T04:24:10;11.90;94.50
41965;DHT22;50120;53.250;8.702;2022-09-03T04:26:37;11.90;94.60
41965;DHT22;50120;53.250;8.702;2022-09-03T04:29:07;11.90;94.60
41965;DHT22;50120;53.250;8.702;2022-09-03T04:31:34;11.90;94.60
41965;DHT22;50120;53.250;8.702;2022-09-03T04:34:00;11.90;94.60
41965;DHT22;50120;53.250;8.702;2022-09-03T04:36:28;11.90;94.70
41965;DHT22;50120;53.250;8.702;2022-09-03T04:38:57;11.90;94.80
41965;DHT22;50120;53.250;8.702;2022-09-03T04:41:26;11.80;94.90
41965;DHT22;50120;53.250;8.702;2022-09-03T04:43:54;11.90;94.80
41965;DHT22;50120;53.250;8.702;2022-09-03T04:46:22;11.80;94.90
41965;DHT22;50120;53.250;8.702;2022-09-03T04:48:52;11.80;94.90
41965;DHT22;50120;53.250;8.702;2022-09-03T04:51:21;11.80;94.90
41965;DHT22;50120;53.250;8.702;2022-09-03T04:53:56;11.80;95.00
41965;DHT22;50120;53.250;8.702;2022-09-03T04:56:25;11.80;95.10
41965;DHT22;50120;53.250;8.702;2022-09-03T04:58:56;11.80;95.10
41965;DHT22;50120;53.250;8.702;2022-09-03T05:01:25;11.80;95.30
41965;DHT22;50120;53.250;8.702;2022-09-03T05:03:51;11.80;95.30
41965;DHT22;50120;53.250;8.702;2022-09-03T05:06:17;11.80;95.10
41965;DHT22;50120;53.250;8.702;2022-09-03T05:08:49;11.90;95.30
41965;DHT22;50120;53.250;8.702;2022-09-03T05:11:16;12.00;95.40
41965;DHT22;50120;53.250;8.702;2022-09-03T05:13:42;12.00;95.30
41965;DHT22;50120;53.250;8.702;2022-09-03T05:16:10;12.10;95.30
41965;DHT22;50120;53.250;8.702;2022-09-03T05:18:37;12.10;95.20
41965;DHT22;50120;53.250;8.702;2022-09-03T05:21:09;12.20;95.30
41965;DHT22;50120;53.250;8.702;2022-09-03T05:23:37;12.20;94.90
41965;DHT22;50120;53.250;8.702;2022-09-03T05:26:05;12.30;94.80
41965;DHT22;50120;53.250;8.702;2022-09-03T05:28:34;12.40;94.90
41965;DHT22;50120;53.250;8.702;2022-09-03T05:31:02;12.50;94.90
41965;DHT22;50120;53.250;8.702;2022-09-03T05:33:28;12.50;94.80
41965;DHT22;50120;53.250;8.702;2022-09-03T05:36:03;12.50;94.90
41965;DHT22;50120;53.250;8.702;2022-09-03T05:38:30;12.60;94.70
41965;DHT22;50120;53.250;8.702;2022-09-03T05:40:59;12.60;94.70
41965;DHT22;50120;53.250;8.702;2022-09-03T05:43:26;12.60;94.60
41965;DHT22;50120;53.250;8.702;2022-09-03T05:46:00;12.70;94.60
41965;DHT22;50120;53.250;8.702;2022-09-03T05:48:28;12.70;94.90
41965;DHT22;50120;53.250;8.702;2022-09-03T05:51:04;12.80;94.70
41965;DHT22;50120;53.250;8.702;2022-09-03T05:53:33;12.80;94.90
41965;DHT22;50120;53.250;8.702;2022-09-03T05:56:00;12.90;94.80
41965;DHT22;50120;53.250;8.702;2022-09-03T05:58:34;12.90;94.40
41965;DHT22;50120;53.250;8.702;2022-09-03T06:01:30;13.00;94.70
41965;DHT22;50120;53.250;8.702;2022-09-03T06:03:57;13.00;94.60
41965;DHT22;50120;53.250;8.702;2022-09-03T06:06:24;13.10;94.40
41965;DHT22;50120;53.250;8.702;2022-09-03T06:08:58;13.20;94.60
41965;DHT22;50120;53.250;8.702;2022-09-03T06:11:25;13.30;94.10
41965;DHT22;50120;53.250;8.702;2022-09-03T06:13:57;13.30;94.20
41965;DHT22;50120;53.250;8.702;2022-09-03T06:16:26;13.40;94.10
41965;DHT22;50120;53.250;8.702;2022-09-03T06:18:52;13.50;93.70
41965;DHT22;50120;53.250;8.702;2022-09-03T06:21:18;13.60;93.70
41965;DHT22;50120;53.250;8.702;2022-09-03T06:23:52;13.60;93.80
41965;DHT22;50120;53.250;8.702;2022-09-03T06:26:20;13.70;93.50
41965;DHT22;50120;53.250;8.702;2022-09-03T06:28:46;13.80;93.80
41965;DHT22;50120;53.250;8.702;2022-09-03T06:31:17;13.80;93.30
41965;DHT22;50120;53.250;8.702;2022-09-03T06:33:44;13.90;93.50
41965;DHT22;50120;53.250;8.702;2022-09-03T06:36:17;13.90;93.20
41965;DHT22;50120;53.250;8.702;2022-09-03T06:38:44;14.00;93.50
41965;DHT22;50120;53.250;8.702;2022-09-03T06:41:13;14.10;93.10
41965;DHT22;50120;53.250;8.702;2022-09-03T06:43:46;14.20;93.00
41965;DHT22;50120;53.250;8.702;2022-09-03T06:46:17;14.30;92.80
41965;DHT22;50120;53.250;8.702;2022-09-03T06:48:44;14.50;92.60
41965;DHT22;50120;53.250;8.702;2022-09-03T06:51:13;14.60;92.20
41965;DHT22;50120;53.250;8.702;2022-09-03T06:53:41;14.70;92.70
41965;DHT22;50120;53.250;8.702;2022-09-03T06:56:12;14.80;92.50
41965;DHT22;50120;53.250;8.702;2022-09-03T06:58:40;14.80;92.50
41965;DHT22;50120;53.250;8.702;2022-09-03T07:01:13;14.90;92.40
41965;DHT22;50120;53.250;8.702;2022-09-03T07:03:40;15.00;92.10
41965;DHT22;50120;53.250;8.702;2022-09-03T07:06:09;15.10;92.00
41965;DHT22;50120;53.250;8.702;2022-09-03T07:08:35;15.10;91.90
41965;DHT22;50120;53.250;8.702;2022-09-03T07:11:06;15.20;92.20
41965;DHT22;50120;53.250;8.702;2022-09-03T07:13:36;15.40;91.90
41965;DHT22;50120;53.250;8.702;2022-09-03T07:16:04;15.50;91.30
41965;DHT22;50120;53.250;8.702;2022-09-03T07:18:31;15.70;90.90
41965;DHT22;50120;53.250;8.702;2022-09-03T07:20:59;15.90;90.10
41965;DHT22;50120;53.250;8.702;2022-09-03T07:23:26;16.10;90.60
41965;DHT22;50120;53.250;8.702;2022-09-03T07:25:56;16.20;90.80
41965;DHT22;50120;53.250;8.702;2022-09-03T07:28:23;16.30;90.20
41965;DHT22;50120;53.250;8.702;2022-09-03T07:30:50;16.40;88.80
41965;DHT22;50120;53.250;8.702;2022-09-03T07:33:17;16.50;88.20
41965;DHT22;50120;53.250;8.702;2022-09-03T07:35:44;16.70;88.60
41965;DHT22;50120;53.250;8.702;2022-09-03T07:38:10;16.70;88.90
41965;DHT22;50120;53.250;8.702;2022-09-03T07:40:37;16.90;88.80
41965;DHT22;50120;53.250;8.702;2022-09-03T07:43:04;17.10;87.80
41965;DHT22;50120;53.250;8.702;2022-09-03T07:45:31;17.20;87.90
41965;DHT22;50120;53.250;8.702;2022-09-03T07:47:58;17.30;85.60
41965;DHT22;50120;53.250;8.702;2022-09-03T07:50:24;17.30;86.50
41965;DHT22;50120;53.250;8.702;2022-09-03T07:52:56;17.40;86.90
41965;DHT22;50120;53.250;8.702;2022-09-03T07:55:23;17.50;86.90
41965;DHT22;50120;53.250;8.702;2022-09-03T07:57:48;17.60;87.20
41965;DHT22;50120;53.250;8.702;2022-09-03T08:00:15;17.70;85.50
41965;DHT22;50120;53.250;8.702;2022-09-03T08:02:42;17.90;86.50
41965;DHT22;50120;53.250;8.702;2022-09-03T08:05:08;18.10;83.70
41965;DHT22;50120;53.250;8.702;2022-09-03T08:07:33;18.30;83.90
41965;DHT22;50120;53.250;8.702;2022-09-03T08:09:59;18.40;82.70
41965;DHT22;50120;53.250;8.702;2022-09-03T08:12:26;18.60;82.10
41965;DHT22;50120;53.250;8.702;2022-09-03T08:14:52;18.70;80.70
41965;DHT22;50120;53.250;8.702;2022-09-03T08:17:18;18.90;80.90
41965;DHT22;50120;53.250;8.702;2022-09-03T08:19:43;18.90;79.50
41965;DHT22;50120;53.250;8.702;2022-09-03T08:22:10;18.90;79.40
41965;DHT22;50120;53.250;8.702;2022-09-03T08:24:36;18.80;79.90
41965;DHT22;50120;53.250;8.702;2022-09-03T08:27:03;18.80;80.80
41965;DHT22;50120;53.250;8.702;2022-09-03T08:29:29;18.80;79.50
41965;DHT22;50120;53.250;8.702;2022-09-03T08:31:55;18.70;78.90
41965;DHT22;50120;53.250;8.702;2022-09-03T08:34:21;18.60;79.40
41965;DHT22;50120;53.250;8.702;2022-09-03T08:36:47;18.80;79.80
41965;DHT22;50120;53.250;8.702;2022-09-03T08:39:13;19.00;79.80
41965;DHT22;50120;53.250;8.702;2022-09-03T08:57:47;20.50;74.90
41965;DHT22;50120;53.250;8.702;2022-09-03T09:00:13;20.50;74.90
41965;DHT22;50120;53.250;8.702;2022-09-03T09:08:51;21.00;72.20
41965;DHT22;50120;53.250;8.702;2022-09-03T09:22:54;20.70;74.70
41965;DHT22;50120;53.250;8.702;2022-09-03T09:25:23;20.90;71.70
41965;DHT22;50120;53.250;8.702;2022-09-03T09:30:24;20.90;70.20
41965;DHT22;50120;53.250;8.702;2022-09-03T09:32:50;21.00;70.60
41965;DHT22;50120;53.250;8.702;2022-09-03T09:35:17;21.10;69.80
41965;DHT22;50120;53.250;8.702;2022-09-03T09:37:55;21.10;69.10
41965;DHT22;50120;53.250;8.702;2022-09-03T09:40:30;21.30;68.70
41965;DHT22;50120;53.250;8.702;2022-09-03T09:43:15;21.50;69.50
41965;DHT22;50120;53.250;8.702;2022-09-03T09:45:43;21.80;68.90
41965;DHT22;50120;53.250;8.702;2022-09-03T09:51:09;21.90;66.40
41965;DHT22;50120;53.250;8.702;2022-09-03T09:53:36;22.00;67.00
41965;DHT22;50120;53.250;8.702;2022-09-03T09:56:02;22.20;66.90
41965;DHT22;50120;53.250;8.702;2022-09-03T09:58:30;22.30;65.90
41965;DHT22;50120;53.250;8.702;2022-09-03T10:03:24;22.10;65.30
41965;DHT22;50120;53.250;8.702;2022-09-03T10:06:04;22.30;65.30
41965;DHT22;50120;53.250;8.702;2022-09-03T10:09:04;22.30;65.80
41965;DHT22;50120;53.250;8.702;2022-09-03T10:11:33;22.40;64.50
41965;DHT22;50120;53.250;8.702;2022-09-03T10:13:59;22.60;64.90
41965;DHT22;50120;53.250;8.702;2022-09-03T10:16:34;22.80;63.40
41965;DHT22;50120;53.250;8.702;2022-09-03T10:19:19;22.90;63.10
41965;DHT22;50120;53.250;8.702;2022-09-03T10:22:08;22.80;62.20
41965;DHT22;50120;53.250;8.702;2022-09-03T10:25:14;22.90;62.50
41965;DHT22;50120;53.250;8.702;2022-09-03T10:27:32;23.00;61.30
41965;DHT22;50120;53.250;8.702;2022-09-03T10:29:58;22.80;59.70
41965;DHT22;50120;53.250;8.702;2022-09-03T10:35:30;22.50;60.50
41965;DHT22;50120;53.250;8.702;2022-09-03T10:40:51;22.60;61.60
41965;DHT22;50120;53.250;8.702;2022-09-03T10:43:35;22.70;59.40
41965;DHT22;50120;53.250;8.702;2022-09-03T10:51:42;23.00;59.30
41965;DHT22;50120;53.250;8.702;2022-09-03T10:57:28;23.00;58.80
41965;DHT22;50120;53.250;8.702;2022-09-03T11:00:11;23.10;59.00
41965;DHT22;50120;53.250;8.702;2022-09-03T11:02:49;23.10;58.90
41965;DHT22;50120;53.250;8.702;2022-09-03T11:05:34;22.80;58.80
41965;DHT22;50120;53.250;8.702;2022-09-03T11:08:15;22.80;59.60
41965;DHT22;50120;53.250;8.702;2022-09-03T11:10:49;22.80;59.10
41965;DHT22;50120;53.250;8.702;2022-09-03T11:13:31;22.90;59.20
41965;DHT22;50120;53.250;8.702;2022-09-03T11:16:05;23.00;59.80
41965;DHT22;50120;53.250;8.702;2022-09-03T11:18:50;23.10;59.60
41965;DHT22;50120;53.250;8.702;2022-09-03T11:21:26;23.20;59.60
41965;DHT22;50120;53.250;8.702;2022-09-03T11:24:14;23.10;59.20
41965;DHT22;50120;53.250;8.702;2022-09-03T11:26:48;22.90;59.90
41965;DHT22;50120;53.250;8.702;2022-09-03T11:32:12;23.10;58.10
41965;DHT22;50120;53.250;8.702;2022-09-03T11:34:49;23.10;57.80
41965;DHT22;50120;53.250;8.702;2022-09-03T11:39:54;23.10;57.40
41965;DHT22;50120;53.250;8.702;2022-09-03T11:42:24;23.20;57.20
41965;DHT22;50120;53.250;8.702;2022-09-03T11:44:52;23.40;57.40
41965;DHT22;50120;53.250;8.702;2022-09-03T11:47:39;23.40;57.50
41965;DHT22;50120;53.250;8.702;2022-09-03T11:52:38;23.30;57.70
41965;DHT22;50120;53.250;8.702;2022-09-03T11:55:06;23.30;57.90
41965;DHT22;50120;53.250;8.702;2022-09-03T11:57:39;23.40;57.20
41965;DHT22;50120;53.250;8.702;2022-09-03T12:00:13;23.40;57.90
41965;DHT22;50120;53.250;8.702;2022-09-03T12:02:48;23.70;57.50
41965;DHT22;50120;53.250;8.702;2022-09-03T12:17:56;23.90;55.70
41965;DHT22;50120;53.250;8.702;2022-09-03T12:20:42;23.70;56.70
41965;DHT22;50120;53.250;8.702;2022-09-03T12:23:26;23.50;56.70
41965;DHT22;50120;53.250;8.702;2022-09-03T12:25:54;23.80;56.70
41965;DHT22;50120;53.250;8.702;2022-09-03T12:28:23;23.90;56.80
41965;DHT22;50120;53.250;8.702;2022-09-03T12:30:51;24.00;56.40
41965;DHT22;50120;53.250;8.702;2022-09-03T12:33:20;23.70;55.80
41965;DHT22;50120;53.250;8.702;2022-09-03T12:35:59;23.50;56.60
41965;DHT22;50120;53.250;8.702;2022-09-03T12:38:27;23.50;56.10
41965;DHT22;50120;53.250;8.702;2022-09-03T12:40:54;23.60;55.90
41965;DHT22;50120;53.250;8.702;2022-09-03T12:43:27;23.60;56.10
41965;DHT22;50120;53.250;8.702;2022-09-03T12:45:53;23.50;56.10
41965;DHT22;50120;53.250;8.702;2022-09-03T12:48:22;23.60;56.40
41965;DHT22;50120;53.250;8.702;2022-09-03T12:50:59;23.70;57.20
41965;DHT22;50120;53.250;8.702;2022-09-03T12:53:27;23.90;56.00
41965;DHT22;50120;53.250;8.702;2022-09-03T12:55:56;24.00;55.90
41965;DHT22;50120;53.250;8.702;2022-09-03T12:58:32;24.10;54.90
41965;DHT22;50120;53.250;8.702;2022-09-03T13:01:08;24.00;55.20
41965;DHT22;50120;53.250;8.702;2022-09-03T13:06:33;24.40;55.30
41965;DHT22;50120;53.250;8.702;2022-09-03T13:09:07;24.60;55.30
41965;DHT22;50120;53.250;8.702;2022-09-03T13:11:35;24.70;55.40
41965;DHT22;50120;53.250;8.702;2022-09-03T13:14:10;24.60;54.70
41965;DHT22;50120;53.250;8.702;2022-09-03T13:16:44;24.50;54.70
41965;DHT22;50120;53.250;8.702;2022-09-03T13:22:20;24.70;54.20
41965;DHT22;50120;53.250;8.702;2022-09-03T13:25:01;24.70;54.70
41965;DHT22;50120;53.250;8.702;2022-09-03T13:27:38;24.90;53.60
41965;DHT22;50120;53.250;8.702;2022-09-03T13:30:08;24.70;55.30
41965;DHT22;50120;53.250;8.702;2022-09-03T13:32:44;24.80;53.80
41965;DHT22;50120;53.250;8.702;2022-09-03T13:38:18;24.70;53.20
41965;DHT22;50120;53.250;8.702;2022-09-03T13:41:08;24.70;54.50
41965;DHT22;50120;53.250;8.702;2022-09-03T13:43:43;24.70;53.90
41965;DHT22;50120;53.250;8.702;2022-09-03T13:46:11;24.80;54.40
41965;DHT22;50120;53.250;8.702;2022-09-03T13:48:43;25.00;54.20
41965;DHT22;50120;53.250;8.702;2022-09-03T13:54:26;25.20;54.70
41965;DHT22;50120;53.250;8.702;2022-09-03T13:57:19;25.40;53.10
41965;DHT22;50120;53.250;8.702;2022-09-03T13:59:51;25.30;52.30
41965;DHT22;50120;53.250;8.702;2022-09-03T14:08:06;25.10;53.10
41965;DHT22;50120;53.250;8.702;2022-09-03T14:10:59;25.30;52.80
41965;DHT22;50120;53.250;8.702;2022-09-03T14:21:44;25.20;53.80
41965;DHT22;50120;53.250;8.702;2022-09-03T14:24:26;25.20;52.70
41965;DHT22;50120;53.250;8.702;2022-09-03T14:27:01;25.30;53.10
41965;DHT22;50120;53.250;8.702;2022-09-03T14:29:30;25.00;52.10
41965;DHT22;50120;53.250;8.702;2022-09-03T14:46:48;24.70;53.10
41965;DHT22;50120;53.250;8.702;2022-09-03T14:57:28;25.20;53.10
41965;DHT22;50120;53.250;8.702;2022-09-03T15:00:17;25.20;53.00
41965;DHT22;50120;53.250;8.702;2022-09-03T15:05:16;25.20;52.40
41965;DHT22;50120;53.250;8.702;2022-09-03T15:07:53;25.20;52.80
41965;DHT22;50120;53.250;8.702;2022-09-03T15:13:19;24.60;52.30
41965;DHT22;50120;53.250;8.702;2022-09-03T15:24:31;23.60;53.80
41965;DHT22;50120;53.250;8.702;2022-09-03T15:27:32;23.40;53.70
41965;DHT22;50120;53.250;8.702;2022-09-03T15:30:11;23.30;53.80
41965;DHT22;50120;53.250;8.702;2022-09-03T15:41:43;23.20;54.40
41965;DHT22;50120;53.250;8.702;2022-09-03T15:44:16;23.10;54.70
41965;DHT22;50120;53.250;8.702;2022-09-03T15:48:00;23.10;54.60
41965;DHT22;50120;53.250;8.702;2022-09-03T15:50:28;23.00;54.20
41965;DHT22;50120;53.250;8.702;2022-09-03T15:56:18;22.90;54.00
41965;DHT22;50120;53.250;8.702;2022-09-03T16:03:56;22.90;54.50
41965;DHT22;50120;53.250;8.702;2022-09-03T16:09:51;22.80;54.40
41965;DHT22;50120;53.250;8.702;2022-09-03T16:12:46;22.80;54.40
41965;DHT22;50120;53.250;8.702;2022-09-03T16:15:56;22.70;54.90
41965;DHT22;50120;53.250;8.702;2022-09-03T16:18:37;22.70;54.50
41965;DHT22;50120;53.250;8.702;2022-09-03T16:21:57;22.70;54.50
41965;DHT22;50120;53.250;8.702;2022-09-03T16:24:41;22.70;55.10
41965;DHT22;50120;53.250;8.702;2022-09-03T16:27:16;22.60;55.00
41965;DHT22;50120;53.250;8.702;2022-09-03T16:30:00;22.60;54.60
41965;DHT22;50120;53.250;8.702;2022-09-03T16:32:32;22.60;56.00
41965;DHT22;50120;53.250;8.702;2022-09-03T17:06:35;22.10;55.80
41965;DHT22;50120;53.250;8.702;2022-09-03T17:09:20;22.10;56.40
41965;DHT22;50120;53.250;8.702;2022-09-03T17:12:13;22.00;56.30
41965;DHT22;50120;53.250;8.702;2022-09-03T17:37:04;21.50;58.00
41965;DHT22;50120;53.250;8.702;2022-09-03T17:39:49;21.40;57.20
41965;DHT22;50120;53.250;8.702;2022-09-03T17:42:47;21.30;57.20
41965;DHT22;50120;53.250;8.702;2022-09-03T17:45:24;21.30;57.50
41965;DHT22;50120;53.250;8.702;2022-09-03T17:50:34;21.10;57.30
41965;DHT22;50120;53.250;8.702;2022-09-03T17:53:31;21.00;57.30
41965;DHT22;50120;53.250;8.702;2022-09-03T17:56:10;21.00;57.40
41965;DHT22;50120;53.250;8.702;2022-09-03T17:58:41;20.90;58.40
41965;DHT22;50120;53.250;8.702;2022-09-03T18:01:16;20.80;58.00
41965;DHT22;50120;53.250;8.702;2022-09-03T18:09:34;20.60;58.00
41965;DHT22;50120;53.250;8.702;2022-09-03T18:12:19;20.50;58.30
41965;DHT22;50120;53.250;8.702;2022-09-03T18:14:55;20.50;58.80
41965;DHT22;50120;53.250;8.702;2022-09-03T18:17:43;20.40;58.80
41965;DHT22;50120;53.250;8.702;2022-09-03T18:20:13;20.40;59.10
41965;DHT22;50120;53.250;8.702;2022-09-03T18:23:18;20.30;59.00
41965;DHT22;50120;53.250;8.702;2022-09-03T18:26:10;20.20;58.90
41965;DHT22;50120;53.250;8.702;2022-09-03T18:29:01;20.20;59.30
41965;DHT22;50120;53.250;8.702;2022-09-03T18:31:46;20.10;59.40
41965;DHT22;50120;53.250;8.702;2022-09-03T18:34:33;20.00;59.30
41965;DHT22;50120;53.250;8.702;2022-09-03T18:37:23;20.00;59.10
41965;DHT22;50120;53.250;8.702;2022-09-03T18:40:13;19.90;59.20
41965;DHT22;50120;53.250;8.702;2022-09-03T18:43:29;19.90;59.50
41965;DHT22;50120;53.250;8.702;2022-09-03T18:46:31;19.80;59.00
41965;DHT22;50120;53.250;8.702;2022-09-03T18:49:28;19.80;58.70
41965;DHT22;50120;53.250;8.702;2022-09-03T18:52:22;19.80;58.60
41965;DHT22;50120;53.250;8.702;2022-09-03T18:55:37;19.80;59.00
41965;DHT22;50120;53.250;8.702;2022-09-03T19:01:41;19.80;58.80
41965;DHT22;50120;53.250;8.702;2022-09-03T19:10:33;19.60;59.10
41965;DHT22;50120;53.250;8.702;2022-09-03T19:13:32;19.60;59.20
41965;DHT22;50120;53.250;8.702;2022-09-03T19:16:23;19.50;58.80
41965;DHT22;50120;53.250;8.702;2022-09-03T19:22:33;19.50;59.60
41965;DHT22;50120;53.250;8.702;2022-09-03T19:25:17;19.40;59.30
41965;DHT22;50120;53.250;8.702;2022-09-03T19:28:23;19.30;59.40
41965;DHT22;50120;53.250;8.702;2022-09-03T19:34:33;19.20;59.90
41965;DHT22;50120;53.250;8.702;2022-09-03T19:37:26;19.10;59.70
41965;DHT22;50120;53.250;8.702;2022-09-03T19:49:08;18.80;60.60
41965;DHT22;50120;53.250;8.702;2022-09-03T19:55:20;18.70;61.20
41965;DHT22;50120;53.250;8.702;2022-09-03T19:58:07;18.60;61.30
41965;DHT22;50120;53.250;8.702;2022-09-03T20:00:53;18.50;61.30
41965;DHT22;50120;53.250;8.702;2022-09-03T20:03:37;18.50;61.70
41965;DHT22;50120;53.250;8.702;2022-09-03T20:06:24;18.50;62.20
41965;DHT22;50120;53.250;8.702;2022-09-03T20:09:11;18.40;61.70
41965;DHT22;50120;53.250;8.702;2022-09-03T20:12:03;18.40;62.00
41965;DHT22;50120;53.250;8.702;2022-09-03T20:14:33;18.40;62.40
41965;DHT22;50120;53.250;8.702;2022-09-03T20:20:33;18.30;62.50
41965;DHT22;50120;53.250;8.702;2022-09-03T20:22:56;18.20;62.60
41965;DHT22;50120;53.250;8.702;2022-09-03T20:25:39;18.20;63.50
41965;DHT22;50120;53.250;8.702;2022-09-03T20:28:37;18.10;63.20
41965;DHT22;50120;53.250;8.702;2022-09-03T20:31:21;18.10;63.70
41965;DHT22;50120;53.250;8.702;2022-09-03T20:36:46;17.90;63.40
41965;DHT22;50120;53.250;8.702;2022-09-03T20:44:57;17.70;63.90
41965;DHT22;50120;53.250;8.702;2022-09-03T20:55:51;17.60;65.40
41965;DHT22;50120;53.250;8.702;2022-09-03T21:01:08;17.40;65.10
41965;DHT22;50120;53.250;8.702;2022-09-03T21:03:41;17.40;65.50
41965;DHT22;50120;53.250;8.702;2022-09-03T21:09:08;17.30;65.70
41965;DHT22;50120;53.250;8.702;2022-09-03T21:14:28;17.30;66.00
41965;DHT22;50120;53.250;8.702;2022-09-03T21:25:38;17.10;66.10
41965;DHT22;50120;53.250;8.702;2022-09-03T21:30:47;17.20;66.60
41965;DHT22;50120;53.250;8.702;2022-09-03T21:33:19;17.10;66.00
41965;DHT22;50120;53.250;8.702;2022-09-03T21:36:02;17.10;66.20
41965;DHT22;50120;53.250;8.702;2022-09-03T21:38:36;17.10;66.40
41965;DHT22;50120;53.250;8.702;2022-09-03T21:41:17;17.10;66.60
41965;DHT22;50120;53.250;8.702;2022-09-03T21:49:02;17.10;66.60
41965;DHT22;50120;53.250;8.702;2022-09-03T21:51:57;17.10;66.80
41965;DHT22;50120;53.250;8.702;2022-09-03T21:54:30;17.00;66.70
41965;DHT22;50120;53.250;8.702;2022-09-03T21:57:31;17.00;66.90
41965;DHT22;50120;53.250;8.702;2022-09-03T22:00:18;17.00;66.80
41965;DHT22;50120;53.250;8.702;2022-09-03T22:02:45;17.00;67.10
41965;DHT22;50120;53.250;8.702;2022-09-03T22:05:13;17.00;66.90
41965;DHT22;50120;53.250;8.702;2022-09-03T22:15:35;17.00;67.40
41965;DHT22;50120;53.250;8.702;2022-09-03T22:20:28;16.90;67.10
41965;DHT22;50120;53.250;8.702;2022-09-03T22:28:31;16.80;68.10
41965;DHT22;50120;53.250;8.702;2022-09-03T22:31:19;16.80;67.80
41965;DHT22;50120;53.250;8.702;2022-09-03T22:36:39;16.80;68.30